Time;durP1;ratioP1;P1;durP2;ratioP2;P2;SDS_P1;SDS_P2;PMS_P1;PMS_P2;Temp;Humidity;BMP_temperature;BMP_pressure;BME280_temperature;BME280_humidity;BME280_pressure;Samples;Min_cycle;Max_cycle;Signal;HPM_P1;HPM_P2
2024/04/05 00:00:55;;;;;;;3.53;1.20;;;;;;;;;;5016864;28;20058;-83
2024/04/05 00:03:22;;;;;;;2.03;0.90;;;;;;;;;;5002675;28;20065;-84
2024/04/05 00:05:48;;;;;;;3.30;1.20;;;;;;;;;;5003721;28;20106;-83
2024/04/05 00:08:14;;;;;;;2.03;1.02;;;;;;;;;;5028033;28;20053;-84
2024/04/05 00:10:40;;;;;;;3.72;1.00;;;;;;;;;;5020089;28;20065;-83
2024/04/05 00:13:06;;;;;;;4.03;1.98;;;;;;;;;;5020279;28;20057;-83
2024/04/05 00:15:38;;;;;;;4.05;1.33;;;;;;;;;;5004643;28;20045;-83
2024/04/05 00:18:05;;;;;;;3.88;1.85;;;;;;;;;;5020429;28;20050;-83
2024/04/05 00:20:31;;;;;;;2.58;1.25;;;;;;;;;;5020557;28;20046;-83
2024/04/05 00:22:57;;;;;;;2.33;1.20;;;;;;;;;;5003806;28;20076;-83
2024/04/05 00:25:23;;;;;;;2.60;1.48;;;;;;;;;;5020493;28;20049;-82
2024/04/05 00:27:51;;;;;;;2.15;0.93;;;;;;;;;;5003536;28;20074;-83
2024/04/05 00:30:17;;;;;;;4.78;1.58;;;;;;;;;;5003928;28;20061;-83
2024/04/05 00:32:44;;;;;;;4.75;1.40;;;;;;;;;;5019984;28;20054;-83
2024/04/05 00:35:10;;;;;;;2.70;1.17;;;;;;;;;;5011620;28;20054;-84
2024/04/05 00:37:36;;;;;;;3.80;1.52;;;;;;;;;;5003685;28;20061;-83
2024/04/05 00:40:02;;;;;;;2.83;1.15;;;;;;;;;;5011944;28;20050;-83
2024/04/05 00:42:29;;;;;;;2.80;1.20;;;;;;;;;;5011823;28;20475;-83
2024/04/05 00:44:55;;;;;;;3.40;1.50;;;;;;;;;;5031482;28;20049;-83
2024/04/05 00:47:21;;;;;;;3.78;1.60;;;;;;;;;;5024602;28;20049;-83
2024/04/05 00:49:48;;;;;;;3.72;1.55;;;;;;;;;;5019955;28;20108;-83
2024/04/05 00:52:14;;;;;;;4.72;1.30;;;;;;;;;;5019945;28;20060;-83
2024/04/05 00:54:41;;;;;;;4.32;1.60;;;;;;;;;;5020511;28;20069;-83
2024/04/05 00:57:08;;;;;;;2.55;1.48;;;;;;;;;;5020653;28;20050;-83
2024/04/05 00:59:35;;;;;;;2.05;1.20;;;;;;;;;;5020882;28;20058;-83
2024/04/05 01:02:01;;;;;;;4.70;1.83;;;;;;;;;;5002100;28;20424;-83
2024/04/05 01:04:27;;;;;;;2.60;1.20;;;;;;;;;;5021222;28;20054;-83
2024/04/05 01:06:54;;;;;;;4.60;1.50;;;;;;;;;;5010939;28;20050;-83
2024/04/05 01:09:21;;;;;;;5.40;1.58;;;;;;;;;;5023787;28;20056;-83
2024/04/05 01:11:56;;;;;;;1.67;1.25;;;;;;;;;;5034210;28;20080;-83
2024/04/05 01:14:25;;;;;;;2.08;1.27;;;;;;;;;;5033519;28;20049;-83
2024/04/05 01:16:51;;;;;;;3.13;1.20;;;;;;;;;;4998717;28;20057;-83
2024/04/05 01:19:19;;;;;;;2.75;1.30;;;;;;;;;;5006864;28;20534;-83
2024/04/05 01:21:49;;;;;;;2.40;1.38;;;;;;;;;;5022994;28;20076;-82
2024/04/05 01:24:16;;;;;;;6.88;1.50;;;;;;;;;;4997560;28;20057;-82
2024/04/05 01:26:42;;;;;;;4.57;1.80;;;;;;;;;;5021992;28;20053;-82
2024/04/05 01:29:08;;;;;;;1.70;1.58;;;;;;;;;;4998037;28;20054;-82
2024/04/05 01:31:34;;;;;;;5.90;1.63;;;;;;;;;;5014105;28;20072;-82
2024/04/05 01:34:01;;;;;;;3.85;1.55;;;;;;;;;;5005653;28;20054;-83
2024/04/05 01:36:27;;;;;;;5.75;1.77;;;;;;;;;;5006304;28;20062;-83
2024/04/05 01:38:53;;;;;;;3.28;1.90;;;;;;;;;;4997568;28;20056;-82
2024/04/05 01:41:20;;;;;;;3.65;1.88;;;;;;;;;;5014100;28;20104;-82
2024/04/05 01:43:46;;;;;;;6.85;1.42;;;;;;;;;;5016533;28;20045;-84
2024/04/05 01:46:12;;;;;;;8.93;1.95;;;;;;;;;;5027573;28;20054;-83
2024/04/05 01:48:39;;;;;;;5.70;2.10;;;;;;;;;;5026493;28;20045;-83
2024/04/05 01:51:05;;;;;;;7.18;1.90;;;;;;;;;;5018118;28;20104;-84
2024/04/05 01:53:31;;;;;;;5.28;2.28;;;;;;;;;;5001155;28;20061;-83
2024/04/05 01:56:02;;;;;;;5.22;1.85;;;;;;;;;;5000905;28;20472;-84
2024/04/05 01:58:29;;;;;;;2.58;2.00;;;;;;;;;;5025445;28;20104;-83
2024/04/05 02:01:02;;;;;;;5.88;1.75;;;;;;;;;;4999462;28;20054;-83
2024/04/05 02:03:30;;;;;;;5.47;2.08;;;;;;;;;;5024673;28;20065;-83
2024/04/05 02:05:56;;;;;;;5.75;1.85;;;;;;;;;;5015505;28;20077;-83
2024/04/05 02:08:22;;;;;;;7.13;2.05;;;;;;;;;;5015672;28;20057;-84
2024/04/05 02:10:48;;;;;;;9.98;2.10;;;;;;;;;;4998656;28;20398;-83
2024/04/05 02:13:15;;;;;;;5.38;1.73;;;;;;;;;;5006909;28;20497;-83
2024/04/05 02:15:46;;;;;;;7.95;1.90;;;;;;;;;;4998825;28;20084;-83
2024/04/05 02:18:13;;;;;;;8.05;2.00;;;;;;;;;;5014855;28;20062;-83
2024/04/05 02:20:41;;;;;;;8.63;1.92;;;;;;;;;;5014816;28;20053;-83
2024/04/05 02:23:07;;;;;;;4.65;1.95;;;;;;;;;;5022898;28;20084;-83
2024/04/05 02:25:34;;;;;;;5.55;2.03;;;;;;;;;;4998291;28;20054;-83
2024/04/05 02:28:00;;;;;;;3.80;2.20;;;;;;;;;;5002677;28;20072;-81
2024/04/05 02:30:26;;;;;;;7.28;2.35;;;;;;;;;;5026419;28;20053;-81
2024/04/05 02:32:52;;;;;;;9.30;2.40;;;;;;;;;;5014773;28;20556;-82
2024/04/05 02:35:18;;;;;;;9.48;3.47;;;;;;;;;;5014651;28;20053;-82
2024/04/05 02:37:45;;;;;;;7.78;2.88;;;;;;;;;;5022547;28;20060;-82
2024/04/05 02:40:11;;;;;;;7.55;3.50;;;;;;;;;;5013987;28;20049;-82
2024/04/05 02:42:37;;;;;;;12.50;5.00;;;;;;;;;;5006231;28;20400;-81
2024/04/05 02:45:04;;;;;;;11.25;4.30;;;;;;;;;;5002255;28;20053;-82
2024/04/05 02:47:30;;;;;;;12.95;5.40;;;;;;;;;;5017269;28;20050;-83
2024/04/05 02:49:56;;;;;;;11.07;5.82;;;;;;;;;;4997661;28;20435;-82
2024/04/05 02:52:22;;;;;;;11.85;5.30;;;;;;;;;;4997167;28;20057;-82
2024/04/05 02:54:49;;;;;;;10.68;5.05;;;;;;;;;;5005495;28;20057;-82
2024/04/05 02:57:15;;;;;;;12.65;4.38;;;;;;;;;;5013748;28;20054;-82
2024/04/05 02:59:41;;;;;;;10.68;5.43;;;;;;;;;;5012740;28;20054;-82
2024/04/05 03:02:07;;;;;;;9.00;4.90;;;;;;;;;;4996748;28;20050;-82
2024/04/05 03:04:34;;;;;;;16.42;5.18;;;;;;;;;;5012870;28;20054;-82
2024/04/05 03:07:00;;;;;;;7.28;4.18;;;;;;;;;;5003372;28;20501;-83
2024/04/05 03:09:26;;;;;;;9.07;4.07;;;;;;;;;;4996346;28;20104;-83
2024/04/05 03:11:52;;;;;;;6.55;4.65;;;;;;;;;;5012418;28;20065;-82
2024/04/05 03:14:19;;;;;;;11.48;5.45;;;;;;;;;;4998966;28;20069;-83
2024/04/05 03:16:45;;;;;;;16.13;5.10;;;;;;;;;;5011312;28;20050;-83
2024/04/05 03:19:12;;;;;;;7.55;4.47;;;;;;;;;;4999639;28;20680;-82
2024/04/05 03:21:38;;;;;;;8.55;4.28;;;;;;;;;;4997800;28;20054;-83
2024/04/05 03:24:05;;;;;;;8.48;3.80;;;;;;;;;;4997199;28;20056;-83
2024/04/05 03:26:36;;;;;;;5.20;3.00;;;;;;;;;;5013305;28;20050;-82
2024/04/05 03:29:03;;;;;;;8.55;2.78;;;;;;;;;;4996364;28;20058;-83
2024/04/05 03:31:29;;;;;;;8.48;3.10;;;;;;;;;;5012407;28;20049;-83
2024/04/05 03:33:56;;;;;;;14.90;3.53;;;;;;;;;;5020919;28;20050;-83
2024/04/05 03:36:22;;;;;;;5.45;2.88;;;;;;;;;;4993013;28;20061;-81
2024/04/05 03:38:50;;;;;;;3.97;2.95;;;;;;;;;;5002195;28;20125;-82
2024/04/05 03:41:16;;;;;;;9.00;3.30;;;;;;;;;;4992520;28;20054;-83
2024/04/05 03:43:42;;;;;;;8.70;3.60;;;;;;;;;;5019166;28;20084;-83
2024/04/05 03:46:09;;;;;;;15.15;5.28;;;;;;;;;;4996630;28;20046;-83
2024/04/05 03:48:35;;;;;;;11.00;4.63;;;;;;;;;;5014103;28;20393;-83
2024/04/05 03:51:01;;;;;;;8.05;4.63;;;;;;;;;;5020542;28;20053;-83
2024/04/05 03:53:27;;;;;;;11.05;4.20;;;;;;;;;;5021428;28;20053;-82
2024/04/05 03:55:54;;;;;;;8.82;4.28;;;;;;;;;;5012715;28;20052;-83
2024/04/05 03:58:21;;;;;;;10.70;3.92;;;;;;;;;;4995971;28;20046;-82
2024/04/05 04:00:51;;;;;;;12.65;4.50;;;;;;;;;;5004571;28;20049;-82
2024/04/05 04:03:17;;;;;;;7.82;4.00;;;;;;;;;;4996468;28;20406;-83
2024/04/05 04:05:44;;;;;;;9.82;3.95;;;;;;;;;;5004979;28;20053;-83
2024/04/05 04:08:11;;;;;;;7.68;3.72;;;;;;;;;;5012852;28;20058;-82
2024/04/05 04:10:39;;;;;;;5.28;3.35;;;;;;;;;;5005570;28;20424;-83
2024/04/05 04:13:05;;;;;;;6.53;3.65;;;;;;;;;;5017944;28;20084;-84
2024/04/05 04:15:33;;;;;;;7.53;3.72;;;;;;;;;;4999820;28;20077;-83
2024/04/05 04:17:59;;;;;;;14.45;5.93;;;;;;;;;;4997277;28;20062;-83
2024/04/05 04:20:25;;;;;;;14.73;7.70;;;;;;;;;;5006183;28;20081;-84
2024/04/05 04:22:52;;;;;;;29.83;15.05;;;;;;;;;;5021885;28;20053;-83
2024/04/05 04:25:18;;;;;;;23.77;11.95;;;;;;;;;;5026996;28;20052;-83
2024/04/05 04:27:44;;;;;;;29.17;14.23;;;;;;;;;;5008524;28;20041;-84
2024/04/05 04:30:12;;;;;;;17.45;9.70;;;;;;;;;;5016111;28;20115;-84
2024/04/05 04:32:38;;;;;;;26.40;17.58;;;;;;;;;;5002701;28;20062;-83
2024/04/05 04:35:05;;;;;;;8.82;5.80;;;;;;;;;;5014539;28;20540;-83
2024/04/05 04:37:31;;;;;;;10.60;5.63;;;;;;;;;;5023230;28;20416;-83
2024/04/05 04:39:58;;;;;;;13.85;4.43;;;;;;;;;;5015020;28;20428;-83
2024/04/05 04:42:24;;;;;;;10.93;7.45;;;;;;;;;;4998910;28;20050;-83
2024/04/05 04:44:54;;;;;;;7.03;4.57;;;;;;;;;;5000494;28;20053;-83
2024/04/05 04:47:20;;;;;;;8.98;3.60;;;;;;;;;;5000834;28;20061;-84
2024/04/05 04:49:46;;;;;;;10.25;4.13;;;;;;;;;;4997464;28;20050;-83
2024/04/05 04:52:12;;;;;;;9.65;3.15;;;;;;;;;;5021466;28;20535;-85
2024/04/05 04:54:39;;;;;;;9.20;3.08;;;;;;;;;;5011297;28;20057;-84
2024/04/05 04:57:05;;;;;;;9.15;3.22;;;;;;;;;;5003426;28;20053;-83
2024/04/05 04:59:32;;;;;;;10.10;3.17;;;;;;;;;;5002839;28;20084;-82
2024/04/05 05:01:58;;;;;;;6.30;3.03;;;;;;;;;;5005308;28;20049;-85
2024/04/05 05:04:24;;;;;;;5.70;2.92;;;;;;;;;;5017684;28;20065;-85
2024/04/05 05:06:51;;;;;;;5.80;3.08;;;;;;;;;;5001809;28;20057;-84
2024/04/05 05:09:17;;;;;;;4.20;2.65;;;;;;;;;;5018103;28;20050;-83
2024/04/05 05:11:46;;;;;;;7.97;3.05;;;;;;;;;;5000438;28;20116;-83
2024/04/05 05:14:12;;;;;;;7.55;3.15;;;;;;;;;;5009054;28;20054;-84
2024/04/05 05:16:38;;;;;;;5.53;3.38;;;;;;;;;;5009772;28;20065;-84
2024/04/05 05:19:06;;;;;;;13.25;4.65;;;;;;;;;;5025909;28;20065;-83
2024/04/05 05:21:34;;;;;;;8.35;2.90;;;;;;;;;;5017463;28;20050;-84
2024/04/05 05:24:00;;;;;;;5.03;3.42;;;;;;;;;;5001464;28;20389;-83
2024/04/05 05:26:27;;;;;;;8.15;2.70;;;;;;;;;;5001219;28;20046;-84
2024/04/05 05:28:54;;;;;;;4.93;2.05;;;;;;;;;;5004084;28;20115;-84
2024/04/05 05:31:20;;;;;;;6.18;3.00;;;;;;;;;;5006315;28;20054;-83
2024/04/05 05:33:47;;;;;;;8.80;2.42;;;;;;;;;;5016817;28;20509;-82
2024/04/05 05:36:13;;;;;;;5.55;2.08;;;;;;;;;;5014879;28;20058;-84
2024/04/05 05:38:40;;;;;;;7.93;2.92;;;;;;;;;;5007804;28;20065;-83
2024/04/05 05:41:06;;;;;;;4.68;2.60;;;;;;;;;;4999643;28;20045;-83
2024/04/05 05:43:33;;;;;;;7.85;2.67;;;;;;;;;;5024076;28;20054;-84
2024/04/05 05:45:59;;;;;;;6.45;2.20;;;;;;;;;;5015420;28;20416;-84
2024/04/05 05:48:25;;;;;;;8.02;2.63;;;;;;;;;;4999003;28;20058;-84
2024/04/05 05:50:52;;;;;;;8.20;2.40;;;;;;;;;;5015244;28;20108;-84
2024/04/05 05:53:18;;;;;;;5.85;2.42;;;;;;;;;;4999236;28;20060;-83
2024/04/05 05:55:50;;;;;;;5.13;2.22;;;;;;;;;;5015659;28;20058;-84
2024/04/05 05:58:16;;;;;;;4.80;2.42;;;;;;;;;;5015896;28;20065;-84
2024/04/05 06:00:42;;;;;;;3.38;2.15;;;;;;;;;;4999107;28;20054;-84
2024/04/05 06:03:08;;;;;;;8.20;2.80;;;;;;;;;;5025442;28;20046;-85
2024/04/05 06:05:36;;;;;;;7.35;2.65;;;;;;;;;;5010412;28;20047;-85
2024/04/05 06:08:02;;;;;;;10.43;2.67;;;;;;;;;;4997951;28;20058;-84
2024/04/05 06:10:29;;;;;;;4.68;2.30;;;;;;;;;;5023231;28;20053;-83
2024/04/05 06:12:55;;;;;;;6.38;2.08;;;;;;;;;;5005967;28;20496;-84
2024/04/05 06:15:21;;;;;;;4.10;2.10;;;;;;;;;;5022643;28;20061;-85
2024/04/05 06:17:47;;;;;;;5.72;2.35;;;;;;;;;;5005204;28;20054;-84
2024/04/05 06:20:17;;;;;;;7.43;2.22;;;;;;;;;;5002555;28;20049;-84
2024/04/05 06:22:43;;;;;;;5.78;2.42;;;;;;;;;;5010344;28;20057;-84
2024/04/05 06:25:10;;;;;;;6.28;2.55;;;;;;;;;;5004691;28;20436;-84
2024/04/05 06:27:36;;;;;;;5.00;2.53;;;;;;;;;;5016794;28;20053;-84
2024/04/05 06:30:02;;;;;;;6.55;2.40;;;;;;;;;;5009728;28;20054;-84
2024/04/05 06:32:30;;;;;;;3.28;2.13;;;;;;;;;;5026868;28;20050;-85
2024/04/05 06:34:57;;;;;;;7.05;2.25;;;;;;;;;;4989758;28;20054;-84
2024/04/05 06:37:25;;;;;;;3.08;1.85;;;;;;;;;;5019627;28;20496;-85
2024/04/05 06:39:54;;;;;;;3.53;2.05;;;;;;;;;;5007293;28;20076;-84
2024/04/05 06:42:21;;;;;;;4.68;1.83;;;;;;;;;;5024772;28;20049;-85
2024/04/05 06:44:52;;;;;;;4.38;1.92;;;;;;;;;;5025455;28;20053;-85
2024/04/05 06:47:18;;;;;;;3.58;1.48;;;;;;;;;;5017969;28;20046;-84
2024/04/05 06:49:45;;;;;;;5.00;1.58;;;;;;;;;;5022016;28;20076;-83
2024/04/05 06:52:11;;;;;;;3.90;1.73;;;;;;;;;;5019206;28;20054;-85
2024/04/05 06:54:46;;;;;;;3.88;1.73;;;;;;;;;;5012765;28;20076;-84
2024/04/05 06:57:12;;;;;;;6.60;1.95;;;;;;;;;;5020233;28;20057;-84
2024/04/05 06:59:38;;;;;;;6.13;1.83;;;;;;;;;;5028738;28;20428;-83
2024/04/05 07:02:06;;;;;;;8.10;2.00;;;;;;;;;;5009982;28;20100;-84
2024/04/05 07:04:32;;;;;;;2.92;1.88;;;;;;;;;;5016646;28;20045;-85
2024/04/05 07:06:59;;;;;;;4.93;1.90;;;;;;;;;;4999411;28;20053;-84
2024/04/05 07:09:28;;;;;;;3.53;2.05;;;;;;;;;;5016819;28;20061;-84
2024/04/05 07:11:55;;;;;;;3.63;1.83;;;;;;;;;;5009836;28;20054;-84
2024/04/05 07:14:22;;;;;;;4.47;1.65;;;;;;;;;;5012340;28;20108;-84
2024/04/05 07:16:49;;;;;;;5.70;1.67;;;;;;;;;;5017357;28;20104;-85
2024/04/05 07:19:18;;;;;;;3.25;1.33;;;;;;;;;;5018246;28;20108;-85
2024/04/05 07:21:47;;;;;;;3.88;1.48;;;;;;;;;;5011821;28;20038;-84
2024/04/05 07:24:13;;;;;;;2.10;1.38;;;;;;;;;;5004566;28;20068;-84
2024/04/05 07:26:40;;;;;;;1.90;1.40;;;;;;;;;;5000584;28;20112;-85
2024/04/05 07:29:08;;;;;;;2.35;1.20;;;;;;;;;;5000281;28;20061;-84
2024/04/05 07:31:36;;;;;;;5.53;1.38;;;;;;;;;;5000223;28;20440;-85
2024/04/05 07:34:03;;;;;;;3.42;1.60;;;;;;;;;;5001613;28;20068;-84
2024/04/05 07:36:29;;;;;;;1.65;1.40;;;;;;;;;;4998514;28;20527;-85
2024/04/05 07:38:56;;;;;;;2.80;1.45;;;;;;;;;;5000035;28;20531;-84
2024/04/05 07:41:22;;;;;;;3.85;1.58;;;;;;;;;;5000614;28;20046;-84
2024/04/05 07:43:49;;;;;;;3.20;2.00;;;;;;;;;;4995549;28;20092;-84
2024/04/05 07:46:16;;;;;;;2.15;1.35;;;;;;;;;;5020504;28;20081;-82
2024/04/05 07:48:43;;;;;;;4.25;1.80;;;;;;;;;;5004937;28;20050;-83
2024/04/05 07:51:10;;;;;;;4.82;1.80;;;;;;;;;;5026900;28;20056;-86
2024/04/05 07:53:36;;;;;;;4.63;1.70;;;;;;;;;;5020342;28;20050;-83
2024/04/05 07:56:03;;;;;;;7.63;2.28;;;;;;;;;;5011070;28;20061;-85
2024/04/05 07:58:29;;;;;;;5.40;1.83;;;;;;;;;;5000940;28;20054;-84
2024/04/05 08:00:56;;;;;;;2.90;1.63;;;;;;;;;;5004039;28;20050;-84
2024/04/05 08:03:22;;;;;;;8.25;1.65;;;;;;;;;;4998103;28;20054;-85
2024/04/05 08:05:49;;;;;;;2.35;1.50;;;;;;;;;;5021901;28;20046;-84
2024/04/05 08:08:15;;;;;;;1.65;1.38;;;;;;;;;;5006465;28;20057;-81
2024/04/05 08:10:41;;;;;;;4.00;1.40;;;;;;;;;;5024009;28;20050;-84
2024/04/05 08:13:08;;;;;;;2.70;1.45;;;;;;;;;;5006730;28;20065;-85
2024/04/05 08:15:34;;;;;;;2.00;1.23;;;;;;;;;;5007135;28;20068;-85
2024/04/05 08:18:00;;;;;;;3.15;1.20;;;;;;;;;;5006935;28;20061;-84
2024/04/05 08:20:27;;;;;;;2.72;1.33;;;;;;;;;;5005017;28;20050;-83
2024/04/05 08:22:53;;;;;;;3.30;1.40;;;;;;;;;;5006416;28;20060;-83
2024/04/05 08:25:19;;;;;;;4.07;1.05;;;;;;;;;;5024424;28;20053;-85
2024/04/05 08:27:47;;;;;;;3.05;1.00;;;;;;;;;;5030776;28;20054;-84
2024/04/05 08:30:15;;;;;;;2.97;1.00;;;;;;;;;;5042332;28;20058;-84
2024/04/05 08:32:42;;;;;;;2.35;1.00;;;;;;;;;;5013891;28;20049;-84
2024/04/05 08:35:16;;;;;;;4.47;1.20;;;;;;;;;;5013724;28;20104;-84
2024/04/05 08:37:44;;;;;;;4.15;1.50;;;;;;;;;;5028799;28;20050;-85
2024/04/05 08:40:11;;;;;;;5.70;1.15;;;;;;;;;;5020906;28;20092;-86
2024/04/05 08:42:42;;;;;;;4.57;1.25;;;;;;;;;;5020157;28;20115;-84
2024/04/05 08:45:10;;;;;;;3.15;1.30;;;;;;;;;;5007488;28;20046;-81
2024/04/05 08:47:38;;;;;;;4.32;1.10;;;;;;;;;;5001576;28;20054;-82
2024/04/05 08:50:06;;;;;;;4.32;1.42;;;;;;;;;;5002350;28;20512;-81
2024/04/05 08:52:34;;;;;;;3.10;1.25;;;;;;;;;;5001624;28;20056;-83
2024/04/05 08:55:02;;;;;;;3.28;1.55;;;;;;;;;;5001610;28;20123;-82
2024/04/05 08:57:38;;;;;;;2.75;1.20;;;;;;;;;;5026825;28;20064;-83
2024/04/05 09:00:06;;;;;;;3.17;1.00;;;;;;;;;;5001841;28;20049;-80
2024/04/05 09:02:33;;;;;;;3.20;1.02;;;;;;;;;;5002150;28;20539;-82
2024/04/05 09:05:04;;;;;;;2.67;1.48;;;;;;;;;;5017754;28;20057;-81
2024/04/05 09:07:30;;;;;;;3.15;1.05;;;;;;;;;;5019195;28;20463;-84
2024/04/05 09:09:56;;;;;;;3.13;1.35;;;;;;;;;;5009929;28;20056;-84
2024/04/05 09:12:23;;;;;;;6.38;1.55;;;;;;;;;;5009274;28;20061;-84
2024/04/05 09:14:59;;;;;;;2.65;1.52;;;;;;;;;;5008531;28;20098;-86
2024/04/05 09:17:26;;;;;;;11.35;1.88;;;;;;;;;;5015825;28;20050;-83
2024/04/05 09:20:16;;;;;;;6.75;1.48;;;;;;;;;;5019818;28;20068;-86
2024/04/05 09:22:44;;;;;;;5.20;1.33;;;;;;;;;;5010395;28;20471;-85
2024/04/05 09:25:10;;;;;;;4.72;1.33;;;;;;;;;;5015791;28;20108;-84
2024/04/05 09:27:36;;;;;;;4.28;1.27;;;;;;;;;;5023556;28;20397;-83
2024/04/05 09:30:03;;;;;;;1.48;0.93;;;;;;;;;;4995939;28;20058;-82
2024/04/05 09:32:29;;;;;;;2.72;1.30;;;;;;;;;;4987600;28;20050;-82
2024/04/05 09:34:57;;;;;;;3.22;1.20;;;;;;;;;;5009943;28;20057;-83
2024/04/05 09:37:26;;;;;;;2.40;1.20;;;;;;;;;;5018875;28;20128;-83
2024/04/05 09:39:55;;;;;;;1.92;1.30;;;;;;;;;;4997538;28;20062;-81
2024/04/05 09:42:22;;;;;;;4.88;1.10;;;;;;;;;;5022449;28;20053;-83
2024/04/05 09:44:51;;;;;;;2.17;1.02;;;;;;;;;;5015558;28;20052;-82
2024/04/05 09:47:20;;;;;;;2.72;1.00;;;;;;;;;;5008384;28;20050;-81
2024/04/05 09:49:47;;;;;;;2.65;1.08;;;;;;;;;;5006883;28;20049;-81
2024/04/05 09:52:16;;;;;;;3.45;1.02;;;;;;;;;;5001266;28;20483;-80
2024/04/05 09:54:45;;;;;;;2.58;1.27;;;;;;;;;;4999684;28;20479;-82
2024/04/05 09:57:15;;;;;;;7.60;1.25;;;;;;;;;;5005334;28;20057;-81
2024/04/05 09:59:43;;;;;;;3.83;1.15;;;;;;;;;;4996436;28;20065;-84
2024/04/05 10:02:10;;;;;;;2.35;0.98;;;;;;;;;;4998300;28;20053;-82
2024/04/05 10:04:38;;;;;;;3.20;1.20;;;;;;;;;;5005957;28;20056;-82
2024/04/05 10:07:09;;;;;;;3.58;1.17;;;;;;;;;;4995991;28;20057;-86
2024/04/05 10:09:36;;;;;;;3.33;1.10;;;;;;;;;;4988312;28;20493;-84
2024/04/05 10:12:12;;;;;;;2.28;1.00;;;;;;;;;;4998789;28;20254;-83
2024/04/05 10:14:39;;;;;;;2.63;1.15;;;;;;;;;;4998073;28;20050;-83
2024/04/05 10:17:12;;;;;;;3.28;1.08;;;;;;;;;;4997507;28;20073;-84
2024/04/05 10:19:40;;;;;;;1.98;0.98;;;;;;;;;;4999461;28;20079;-83
2024/04/05 10:22:09;;;;;;;2.83;1.23;;;;;;;;;;5009353;28;20057;-84
2024/04/05 10:24:37;;;;;;;2.72;1.00;;;;;;;;;;5001143;28;20046;-84
2024/04/05 10:27:04;;;;;;;3.10;1.17;;;;;;;;;;5015131;28;20058;-83
2024/04/05 10:29:32;;;;;;;1.95;0.73;;;;;;;;;;5003480;28;20296;-85
2024/04/05 10:32:02;;;;;;;6.05;1.63;;;;;;;;;;5000466;28;20065;-85
2024/04/05 10:34:28;;;;;;;4.80;0.90;;;;;;;;;;4999598;28;20053;-82
2024/04/05 10:36:56;;;;;;;5.05;0.90;;;;;;;;;;5011906;28;20515;-81
2024/04/05 10:39:22;;;;;;;2.17;1.00;;;;;;;;;;5029041;28;20068;-84
2024/04/05 10:41:49;;;;;;;5.40;0.90;;;;;;;;;;5011449;28;20049;-82
2024/04/05 10:44:18;;;;;;;2.13;0.80;;;;;;;;;;5001493;28;20060;-83
2024/04/05 10:46:47;;;;;;;1.75;0.80;;;;;;;;;;5002244;28;20042;-82
2024/04/05 10:49:19;;;;;;;2.47;0.80;;;;;;;;;;5002393;28;20063;-84
2024/04/05 10:51:46;;;;;;;2.22;0.90;;;;;;;;;;5005340;28;20443;-81
2024/04/05 10:54:13;;;;;;;2.65;0.90;;;;;;;;;;5008508;28;20123;-82
2024/04/05 10:56:40;;;;;;;2.05;0.88;;;;;;;;;;4999399;28;20424;-81
2024/04/05 10:59:13;;;;;;;2.25;0.80;;;;;;;;;;4996432;28;20097;-81
2024/04/05 11:01:40;;;;;;;3.78;1.27;;;;;;;;;;5013504;28;20048;-82
2024/04/05 11:04:10;;;;;;;1.23;0.70;;;;;;;;;;4996165;28;20061;-80
2024/04/05 11:06:37;;;;;;;1.75;0.52;;;;;;;;;;5012869;28;20444;-80
2024/04/05 11:09:03;;;;;;;3.53;1.08;;;;;;;;;;5013509;28;20423;-82
2024/04/05 11:11:29;;;;;;;6.97;1.10;;;;;;;;;;4995779;28;20061;-82
2024/04/05 11:14:06;;;;;;;3.85;1.35;;;;;;;;;;5000588;28;20065;-84
2024/04/05 11:16:36;;;;;;;4.72;0.93;;;;;;;;;;5016938;28;20058;-81
2024/04/05 11:19:06;;;;;;;3.90;1.00;;;;;;;;;;4998847;28;20049;-80
2024/04/05 11:21:33;;;;;;;2.40;1.02;;;;;;;;;;5016073;28;20053;-82
2024/04/05 11:23:59;;;;;;;5.53;1.95;;;;;;;;;;5000506;28;20050;-83
2024/04/05 11:26:30;;;;;;;2.72;0.88;;;;;;;;;;5011035;28;20054;-81
2024/04/05 11:28:57;;;;;;;2.50;1.00;;;;;;;;;;5016392;28;20096;-82
2024/04/05 11:31:26;;;;;;;3.03;1.10;;;;;;;;;;5000133;28;20054;-81
2024/04/05 11:33:59;;;;;;;3.42;0.90;;;;;;;;;;5002091;28;20069;-81
2024/04/05 11:36:26;;;;;;;2.67;0.95;;;;;;;;;;5003242;28;20508;-83
2024/04/05 11:38:52;;;;;;;3.28;0.80;;;;;;;;;;5003335;28;20058;-80
2024/04/05 11:41:19;;;;;;;3.38;1.00;;;;;;;;;;5010799;28;20055;-81
2024/04/05 11:43:45;;;;;;;2.60;1.02;;;;;;;;;;5004050;28;20060;-83
2024/04/05 11:46:12;;;;;;;1.75;0.70;;;;;;;;;;5002756;28;20061;-81
2024/04/05 11:48:38;;;;;;;1.50;0.73;;;;;;;;;;5018254;28;20053;-82
2024/04/05 11:51:05;;;;;;;2.20;0.77;;;;;;;;;;5002824;28;20050;-80
2024/04/05 11:53:33;;;;;;;2.17;0.85;;;;;;;;;;5002839;28;20058;-81
2024/04/05 11:55:59;;;;;;;1.98;0.70;;;;;;;;;;5010928;28;20058;-85
2024/04/05 11:58:26;;;;;;;4.13;0.80;;;;;;;;;;5019754;28;20058;-82
2024/04/05 12:00:52;;;;;;;1.88;0.80;;;;;;;;;;5021151;28;20053;-82
2024/04/05 12:03:19;;;;;;;2.83;0.60;;;;;;;;;;5018312;28;20064;-82
2024/04/05 12:05:46;;;;;;;2.22;0.85;;;;;;;;;;5020504;28;20053;-81
2024/04/05 12:08:12;;;;;;;4.70;0.73;;;;;;;;;;5002614;28;20057;-81
2024/04/05 12:10:40;;;;;;;2.58;0.88;;;;;;;;;;5014483;28;20062;-81
2024/04/05 12:13:06;;;;;;;3.25;0.90;;;;;;;;;;5016024;28;20061;-81
2024/04/05 12:15:34;;;;;;;2.88;1.05;;;;;;;;;;5000425;28;20520;-81
2024/04/05 12:18:01;;;;;;;2.70;1.00;;;;;;;;;;5025929;28;20050;-84
2024/04/05 12:20:28;;;;;;;4.00;0.95;;;;;;;;;;5016165;28;20509;-81
2024/04/05 12:22:54;;;;;;;2.05;0.65;;;;;;;;;;4998977;28;20045;-81
2024/04/05 12:25:22;;;;;;;4.72;0.88;;;;;;;;;;5007738;28;20057;-81
2024/04/05 12:27:49;;;;;;;3.35;0.65;;;;;;;;;;5009357;28;20053;-83
2024/04/05 12:30:16;;;;;;;3.35;0.80;;;;;;;;;;5031942;28;20050;-83
2024/04/05 12:32:42;;;;;;;3.80;0.60;;;;;;;;;;5001216;28;20058;-82
2024/04/05 12:35:09;;;;;;;4.40;0.70;;;;;;;;;;4998658;28;20050;-82
2024/04/05 12:37:37;;;;;;;2.65;0.70;;;;;;;;;;5006875;28;20053;-81
2024/04/05 12:40:17;;;;;;;1.40;0.43;;;;;;;;;;4999258;28;20420;-81
2024/04/05 12:42:43;;;;;;;2.17;0.70;;;;;;;;;;4998160;28;20046;-82
2024/04/05 12:45:10;;;;;;;2.75;0.88;;;;;;;;;;5008557;28;20065;-82
2024/04/05 12:47:36;;;;;;;4.13;0.73;;;;;;;;;;5016112;28;20046;-82
2024/04/05 12:50:03;;;;;;;3.67;0.70;;;;;;;;;;5018063;28;20472;-82
2024/04/05 12:52:30;;;;;;;2.55;0.75;;;;;;;;;;5009210;28;20064;-81
2024/04/05 12:54:56;;;;;;;1.48;0.60;;;;;;;;;;4990920;28;20061;-81
2024/04/05 12:57:23;;;;;;;2.70;0.73;;;;;;;;;;5008104;28;20053;-82
2024/04/05 12:59:51;;;;;;;1.17;0.43;;;;;;;;;;5000216;28;20571;-81
2024/04/05 13:02:18;;;;;;;1.58;0.50;;;;;;;;;;5025465;28;20100;-81
2024/04/05 13:04:45;;;;;;;3.13;0.88;;;;;;;;;;5001994;28;20058;-82
2024/04/05 13:07:11;;;;;;;2.75;0.80;;;;;;;;;;5020291;28;20049;-81
2024/04/05 13:09:40;;;;;;;2.20;0.60;;;;;;;;;;5019236;28;20123;-81
2024/04/05 13:12:07;;;;;;;1.85;0.57;;;;;;;;;;5019139;28;20050;-81
2024/04/05 13:14:33;;;;;;;1.65;0.60;;;;;;;;;;5003524;28;20053;-81
2024/04/05 13:17:02;;;;;;;21.95;1.35;;;;;;;;;;5008454;28;20066;-80
2024/04/05 13:19:29;;;;;;;2.67;0.70;;;;;;;;;;5022811;28;20056;-81
2024/04/05 13:21:55;;;;;;;16.35;1.50;;;;;;;;;;4998438;28;20050;-81
2024/04/05 13:24:23;;;;;;;2.05;0.93;;;;;;;;;;5014640;28;20054;-83
2024/04/05 13:26:50;;;;;;;2.85;0.50;;;;;;;;;;4996508;28;20058;-82
2024/04/05 13:29:17;;;;;;;2.65;0.85;;;;;;;;;;5000095;28;20057;-80
2024/04/05 13:31:43;;;;;;;0.80;0.55;;;;;;;;;;5016812;28;20413;-79
2024/04/05 13:34:09;;;;;;;1.67;0.68;;;;;;;;;;4999366;28;20062;-82
2024/04/05 13:36:39;;;;;;;3.65;0.70;;;;;;;;;;5032821;28;20415;-82
2024/04/05 13:39:09;;;;;;;2.60;0.47;;;;;;;;;;5000521;28;20054;-83
2024/04/05 13:41:38;;;;;;;2.90;1.00;;;;;;;;;;5000712;28;20046;-80
2024/04/05 13:44:05;;;;;;;4.00;0.80;;;;;;;;;;5000410;28;20061;-82
2024/04/05 13:46:31;;;;;;;2.63;0.60;;;;;;;;;;4999797;28;20057;-79
2024/04/05 13:48:57;;;;;;;1.67;0.68;;;;;;;;;;5015987;28;20050;-83
2024/04/05 13:51:31;;;;;;;2.65;0.73;;;;;;;;;;5010218;28;20057;-81
2024/04/05 13:53:57;;;;;;;1.75;0.60;;;;;;;;;;4999971;28;20076;-80
2024/04/05 13:56:25;;;;;;;2.50;0.70;;;;;;;;;;5002062;28;20053;-84
2024/04/05 13:58:52;;;;;;;12.15;1.02;;;;;;;;;;5010931;28;20061;-82
2024/04/05 14:01:18;;;;;;;2.55;0.60;;;;;;;;;;5016009;28;20053;-81
2024/04/05 14:03:45;;;;;;;12.75;1.42;;;;;;;;;;5009124;28;20050;-82
2024/04/05 14:06:12;;;;;;;3.50;0.70;;;;;;;;;;5005264;28;20050;-82
2024/04/05 14:08:39;;;;;;;3.25;2.17;;;;;;;;;;5006922;28;20045;-83
2024/04/05 14:11:11;;;;;;;4.22;0.60;;;;;;;;;;5005160;28;20057;-81
2024/04/05 14:13:40;;;;;;;2.45;0.98;;;;;;;;;;4994481;28;20464;-83
2024/04/05 14:16:06;;;;;;;1.50;0.73;;;;;;;;;;4997487;28;20057;-81
2024/04/05 14:18:33;;;;;;;2.05;1.20;;;;;;;;;;4997837;28;20054;-80
2024/04/05 14:20:59;;;;;;;4.55;1.00;;;;;;;;;;5014091;28;20085;-81
2024/04/05 14:23:25;;;;;;;4.80;0.70;;;;;;;;;;4999120;28;20073;-80
2024/04/05 14:25:56;;;;;;;2.92;0.98;;;;;;;;;;5002976;28;20073;-81
2024/04/05 14:28:29;;;;;;;3.08;0.60;;;;;;;;;;5009152;28;20045;-82
2024/04/05 14:30:59;;;;;;;0.68;0.63;;;;;;;;;;5015844;28;20053;-83
2024/04/05 14:33:26;;;;;;;1.00;0.70;;;;;;;;;;5013749;28;20504;-81
2024/04/05 14:36:11;;;;;;;4.10;0.90;;;;;;;;;;5013520;28;20076;-82
2024/04/05 14:38:37;;;;;;;2.97;0.60;;;;;;;;;;5032537;28;20050;-80
2024/04/05 14:41:10;;;;;;;1.15;0.60;;;;;;;;;;4992510;28;20050;-82